Time;durP1;ratioP1;P1;durP2;ratioP2;P2;SDS_P1;SDS_P2;PMS_P1;PMS_P2;Temp;Humidity;BMP_temperature;BMP_pressure;BME280_temperature;BME280_humidity;BME280_pressure;Samples;Min_cycle;Max_cycle;Signal;HPM_P1;HPM_P2
2022/01/07 00:01:42;;;;;;;0.50;0.50;;;2.90;89.60;;;;;;5050150;28;20183;-75
2022/01/07 00:04:07;;;;;;;1.00;0.90;;;2.80;89.70;;;;;;5046447;28;20217;-75
2022/01/07 00:06:33;;;;;;;0.60;0.60;;;2.80;89.80;;;;;;5052146;28;20188;-75
2022/01/07 00:08:59;;;;;;;8.80;0.73;;;2.80;89.60;;;;;;5049473;28;21900;-76
2022/01/07 00:11:25;;;;;;;0.80;0.80;;;2.80;89.70;;;;;;5042032;28;20237;-75
2022/01/07 00:13:50;;;;;;;0.67;0.67;;;2.80;89.80;;;;;;5046640;28;20644;-75
2022/01/07 00:16:16;;;;;;;0.57;0.57;;;2.80;89.80;;;;;;5049205;28;20187;-75
2022/01/07 00:18:44;;;;;;;0.70;0.70;;;2.80;89.80;;;;;;5051879;28;20199;-75
2022/01/07 00:21:11;;;;;;;1.00;1.00;;;2.80;89.80;;;;;;5051932;28;20172;-74
2022/01/07 00:23:38;;;;;;;1.43;0.60;;;2.80;89.70;;;;;;5050337;28;20596;-75
2022/01/07 00:26:04;;;;;;;0.70;0.70;;;2.80;89.80;;;;;;5039902;28;20187;-76
2022/01/07 00:28:30;;;;;;;0.63;0.63;;;2.80;89.70;;;;;;5049669;28;20187;-75
2022/01/07 00:30:55;;;;;;;1.23;0.60;;;2.80;89.70;;;;;;5047645;28;20182;-76
2022/01/07 00:33:21;;;;;;;0.63;0.63;;;2.70;89.80;;;;;;5044040;28;20229;-76
2022/01/07 00:35:48;;;;;;;0.77;0.77;;;2.70;89.90;;;;;;5048222;28;20333;-76
2022/01/07 00:38:14;;;;;;;0.70;0.70;;;2.70;89.90;;;;;;5051412;28;20175;-76
2022/01/07 00:40:40;;;;;;;0.70;0.70;;;2.70;89.70;;;;;;5041429;28;20571;-75
2022/01/07 00:43:06;;;;;;;0.57;0.57;;;2.70;89.70;;;;;;5050860;28;20191;-76
2022/01/07 00:45:33;;;;;;;1.03;1.00;;;2.70;89.70;;;;;;5051435;28;20175;-77
2022/01/07 00:47:58;;;;;;;0.53;0.53;;;2.80;89.70;;;;;;5051184;28;20203;-76
2022/01/07 00:50:26;;;;;;;0.70;0.70;;;2.80;89.60;;;;;;5043746;28;20216;-76
2022/01/07 00:52:52;;;;;;;0.70;0.70;;;2.80;89.50;;;;;;5052539;28;20222;-76
2022/01/07 00:55:18;;;;;;;0.50;0.50;;;2.80;89.60;;;;;;5048571;28;20649;-76
2022/01/07 00:57:44;;;;;;;0.80;0.80;;;2.70;89.60;;;;;;5053508;28;20195;-76
2022/01/07 01:00:13;;;;;;;0.90;0.90;;;2.70;89.80;;;;;;5054385;28;20570;-76
2022/01/07 01:02:39;;;;;;;0.63;0.63;;;2.70;89.90;;;;;;5039723;28;20183;-76
2022/01/07 01:05:07;;;;;;;0.70;0.70;;;2.70;89.90;;;;;;5057100;28;20234;-76
2022/01/07 01:07:33;;;;;;;0.93;0.93;;;2.70;89.90;;;;;;5059846;28;20204;-76
2022/01/07 01:09:59;;;;;;;0.50;0.50;;;2.70;89.90;;;;;;5045044;28;20270;-78
2022/01/07 01:12:25;;;;;;;0.80;0.80;;;2.70;90.00;;;;;;5050780;28;20214;-77
2022/01/07 01:14:51;;;;;;;1.53;0.97;;;2.70;90.10;;;;;;5046168;28;20673;-76
2022/01/07 01:17:16;;;;;;;1.03;0.63;;;2.70;90.10;;;;;;5057339;28;20237;-75
2022/01/07 01:19:42;;;;;;;0.73;0.73;;;2.70;90.10;;;;;;5059901;28;20215;-75
2022/01/07 01:22:09;;;;;;;0.70;0.70;;;2.70;90.10;;;;;;5053425;28;20571;-76
2022/01/07 01:24:35;;;;;;;0.60;0.60;;;2.70;90.10;;;;;;5054462;28;20206;-75
2022/01/07 01:27:01;;;;;;;1.30;0.80;;;2.70;90.00;;;;;;5047048;28;20184;-75
2022/01/07 01:29:27;;;;;;;0.67;0.67;;;2.70;89.90;;;;;;5055952;28;20191;-75
2022/01/07 01:31:53;;;;;;;0.60;0.60;;;2.70;90.00;;;;;;5055680;28;20327;-75
2022/01/07 01:34:19;;;;;;;0.87;0.87;;;2.70;90.00;;;;;;5052058;28;20405;-76
2022/01/07 01:36:45;;;;;;;0.80;0.80;;;2.70;90.00;;;;;;5049895;28;20270;-75
2022/01/07 01:39:12;;;;;;;1.40;1.03;;;2.70;89.90;;;;;;5053296;28;20254;-76
2022/01/07 01:41:39;;;;;;;1.40;1.00;;;2.70;90.00;;;;;;5049792;28;20287;-76
2022/01/07 01:44:05;;;;;;;0.73;0.73;;;2.60;90.10;;;;;;5055831;28;20195;-75
2022/01/07 01:46:31;;;;;;;0.90;0.90;;;2.60;90.20;;;;;;5054067;28;20661;-76
2022/01/07 01:48:57;;;;;;;1.30;1.30;;;2.60;90.10;;;;;;5060433;28;20194;-75
2022/01/07 01:51:22;;;;;;;5.83;0.90;;;2.60;90.20;;;;;;5048055;28;20215;-76
2022/01/07 01:53:48;;;;;;;0.90;0.90;;;2.60;90.20;;;;;;5052565;28;20668;-75
2022/01/07 01:56:14;;;;;;;0.90;0.90;;;2.60;90.20;;;;;;5052433;28;20184;-76
2022/01/07 01:58:40;;;;;;;0.50;0.50;;;2.50;90.20;;;;;;5052772;28;20206;-75
2022/01/07 02:01:06;;;;;;;1.07;0.80;;;2.50;90.20;;;;;;5050976;28;20262;-75
2022/01/07 02:03:32;;;;;;;0.77;0.77;;;2.50;90.30;;;;;;5048842;28;20330;-76
2022/01/07 02:05:58;;;;;;;1.07;1.07;;;2.60;90.20;;;;;;5056568;28;20194;-76
2022/01/07 02:08:24;;;;;;;1.00;0.90;;;2.60;90.00;;;;;;5054975;28;20350;-75
2022/01/07 02:10:50;;;;;;;0.93;0.93;;;2.60;90.00;;;;;;5049342;28;20188;-76
2022/01/07 02:13:17;;;;;;;0.80;0.80;;;2.60;90.00;;;;;;5053673;28;20211;-75
2022/01/07 02:15:42;;;;;;;0.97;0.70;;;2.60;90.10;;;;;;5039566;28;20247;-75
2022/01/07 02:18:08;;;;;;;0.87;0.87;;;2.60;90.10;;;;;;5055029;28;20718;-75
2022/01/07 02:20:34;;;;;;;0.83;0.83;;;2.60;90.20;;;;;;5052000;28;20267;-75
2022/01/07 02:23:00;;;;;;;0.60;0.60;;;2.50;90.20;;;;;;5052887;28;20191;-74
2022/01/07 02:25:27;;;;;;;0.60;0.60;;;2.60;90.30;;;;;;5053561;28;20211;-75
2022/01/07 02:27:54;;;;;;;0.60;0.60;;;2.50;90.30;;;;;;5053603;28;20676;-75
2022/01/07 02:30:23;;;;;;;0.60;0.60;;;2.50;90.40;;;;;;5052455;28;20183;-76
2022/01/07 02:32:50;;;;;;;0.90;0.90;;;2.50;90.40;;;;;;5052196;28;20215;-76
2022/01/07 02:35:18;;;;;;;0.60;0.50;;;2.40;90.60;;;;;;5051106;28;20247;-76
2022/01/07 02:37:45;;;;;;;1.63;0.90;;;2.40;90.70;;;;;;5050949;28;20207;-75
2022/01/07 02:40:12;;;;;;;0.70;0.70;;;2.40;90.70;;;;;;5052168;28;20262;-75
2022/01/07 02:42:38;;;;;;;0.63;0.63;;;2.40;90.80;;;;;;5050065;28;20188;-76
2022/01/07 02:45:08;;;;;;;0.60;0.60;;;2.40;90.70;;;;;;5057787;28;20216;-75
2022/01/07 02:47:48;;;;;;;1.50;0.90;;;2.40;90.70;;;;;;5061828;28;20278;-76
2022/01/07 02:50:15;;;;;;;0.40;0.40;;;2.40;90.80;;;;;;5048104;28;20190;-74
2022/01/07 02:52:41;;;;;;;0.57;0.57;;;2.40;90.80;;;;;;5052323;28;20215;-75
2022/01/07 02:55:07;;;;;;;0.60;0.60;;;2.40;90.70;;;;;;5057361;28;20190;-75
2022/01/07 02:57:33;;;;;;;2.63;0.70;;;2.30;90.80;;;;;;5055067;28;20274;-75
2022/01/07 02:59:59;;;;;;;0.70;0.70;;;2.30;90.80;;;;;;5047005;28;20656;-74
2022/01/07 03:02:24;;;;;;;0.60;0.53;;;2.30;90.80;;;;;;5049295;28;20677;-76
2022/01/07 03:04:50;;;;;;;0.77;0.77;;;2.30;91.00;;;;;;5038316;28;20188;-76
2022/01/07 03:07:15;;;;;;;0.70;0.60;;;2.30;90.90;;;;;;5048419;28;20188;-76
2022/01/07 03:09:41;;;;;;;0.60;0.60;;;2.30;91.00;;;;;;5050140;28;20943;-76
2022/01/07 03:12:07;;;;;;;0.93;0.47;;;2.30;91.00;;;;;;5046560;28;20211;-75
2022/01/07 03:14:33;;;;;;;1.40;0.67;;;2.30;91.00;;;;;;5051959;28;20629;-76
2022/01/07 03:16:58;;;;;;;0.67;0.60;;;2.30;90.90;;;;;;5048942;28;20677;-75
2022/01/07 03:19:24;;;;;;;0.83;0.83;;;2.40;90.80;;;;;;5051353;28;20192;-75
2022/01/07 03:21:50;;;;;;;0.53;0.43;;;2.30;90.80;;;;;;5054318;28;20187;-75
2022/01/07 03:24:15;;;;;;;0.70;0.50;;;2.40;90.80;;;;;;5050497;28;20192;-75
2022/01/07 03:26:41;;;;;;;0.67;0.67;;;2.30;91.00;;;;;;5050507;28;20175;-74
2022/01/07 03:29:07;;;;;;;1.23;0.97;;;2.30;91.00;;;;;;5055811;28;20587;-76
2022/01/07 03:31:32;;;;;;;1.27;0.70;;;2.30;91.20;;;;;;5046735;28;20187;-75
2022/01/07 03:33:58;;;;;;;0.70;0.70;;;2.20;91.30;;;;;;5049255;28;20184;-75
2022/01/07 03:36:24;;;;;;;0.73;0.73;;;2.30;91.20;;;;;;5052457;28;20680;-75
2022/01/07 03:38:49;;;;;;;0.50;0.50;;;2.30;91.00;;;;;;5052557;28;20796;-76
2022/01/07 03:41:16;;;;;;;0.50;0.50;;;2.30;90.90;;;;;;5047574;28;20180;-76
2022/01/07 03:43:42;;;;;;;0.60;0.60;;;2.30;90.80;;;;;;5065539;28;20187;-76
2022/01/07 03:46:08;;;;;;;0.70;0.70;;;2.30;90.90;;;;;;5050654;28;20649;-75
2022/01/07 03:48:34;;;;;;;0.80;0.80;;;2.30;91.00;;;;;;5046726;28;21874;-75
2022/01/07 03:51:00;;;;;;;2.00;1.30;;;2.20;91.20;;;;;;5045820;28;20252;-76
2022/01/07 03:53:26;;;;;;;7.00;1.07;;;2.20;91.20;;;;;;5048511;28;20191;-76
2022/01/07 03:55:53;;;;;;;1.50;1.40;;;2.20;91.30;;;;;;5051876;28;20191;-76
2022/01/07 03:58:19;;;;;;;0.70;0.63;;;2.20;91.30;;;;;;5054809;28;20186;-76
2022/01/07 04:00:45;;;;;;;1.17;1.17;;;2.30;91.30;;;;;;5045203;28;20702;-76
2022/01/07 04:03:14;;;;;;;0.93;0.93;;;2.20;91.20;;;;;;5050548;28;20223;-75
2022/01/07 04:05:40;;;;;;;2.67;0.70;;;2.30;91.00;;;;;;5051892;28;20179;-76
2022/01/07 04:08:07;;;;;;;0.73;0.73;;;2.30;91.00;;;;;;5049013;28;20699;-75
2022/01/07 04:10:35;;;;;;;0.60;0.60;;;2.30;91.00;;;;;;5046007;28;20186;-76
2022/01/07 04:13:01;;;;;;;0.63;0.63;;;2.30;90.90;;;;;;5051178;28;20184;-75
2022/01/07 04:15:27;;;;;;;2.23;1.40;;;2.30;90.90;;;;;;5049461;28;20223;-76
2022/01/07 04:17:54;;;;;;;1.00;0.90;;;2.30;90.90;;;;;;5045499;28;20778;-76
2022/01/07 04:20:29;;;;;;;0.67;0.60;;;2.30;90.80;;;;;;5045720;28;20504;-75
2022/01/07 04:22:55;;;;;;;0.80;0.80;;;2.30;90.70;;;;;;5051875;28;20218;-76
2022/01/07 04:25:22;;;;;;;1.13;1.13;;;2.40;90.60;;;;;;5048474;28;20244;-76
2022/01/07 04:27:51;;;;;;;0.53;0.53;;;2.40;90.60;;;;;;5047412;28;20183;-77
2022/01/07 04:30:18;;;;;;;0.70;0.70;;;2.40;90.60;;;;;;5044453;28;20274;-76
2022/01/07 04:32:44;;;;;;;1.50;0.57;;;2.40;90.50;;;;;;5049407;28;20198;-76
2022/01/07 04:35:12;;;;;;;0.67;0.67;;;2.40;90.40;;;;;;5047626;28;20172;-77
2022/01/07 04:37:38;;;;;;;0.60;0.60;;;2.40;90.40;;;;;;5044469;28;20291;-77
2022/01/07 04:40:06;;;;;;;0.70;0.70;;;2.40;90.50;;;;;;5049624;28;20182;-78
2022/01/07 04:42:32;;;;;;;0.80;0.80;;;2.40;90.50;;;;;;5053604;28;20211;-75
2022/01/07 04:44:58;;;;;;;0.83;0.83;;;2.40;90.60;;;;;;5052403;28;20187;-76
2022/01/07 04:47:25;;;;;;;1.27;0.73;;;2.40;90.60;;;;;;5050671;28;20186;-76
2022/01/07 04:49:50;;;;;;;1.33;1.30;;;2.40;90.70;;;;;;5046514;28;20179;-76
2022/01/07 04:52:17;;;;;;;1.03;0.73;;;2.40;90.80;;;;;;5046386;28;20188;-76
2022/01/07 04:54:44;;;;;;;0.77;0.77;;;2.40;90.80;;;;;;5045114;28;20258;-75
2022/01/07 04:57:10;;;;;;;0.80;0.80;;;2.40;90.70;;;;;;5049093;28;20215;-75
2022/01/07 04:59:35;;;;;;;0.70;0.70;;;2.40;90.70;;;;;;5052575;28;20731;-74
2022/01/07 05:02:01;;;;;;;1.37;1.03;;;2.50;90.70;;;;;;5053904;28;20227;-75
2022/01/07 05:04:27;;;;;;;1.77;1.20;;;2.50;90.60;;;;;;5045795;28;20187;-75
2022/01/07 05:06:53;;;;;;;1.20;1.20;;;2.40;90.70;;;;;;5049625;28;20188;-76
2022/01/07 05:09:19;;;;;;;1.07;1.00;;;2.40;90.80;;;;;;5050934;28;20187;-76
2022/01/07 05:11:50;;;;;;;2.77;1.13;;;2.40;90.80;;;;;;5051825;28;21040;-76
2022/01/07 05:14:17;;;;;;;0.97;0.97;;;2.40;90.80;;;;;;5049562;28;20679;-75
2022/01/07 05:16:43;;;;;;;1.10;1.00;;;2.40;90.90;;;;;;5055467;28;20179;-76
2022/01/07 05:19:09;;;;;;;2.27;1.40;;;2.40;90.90;;;;;;5052997;28;20220;-75
2022/01/07 05:21:36;;;;;;;1.10;1.10;;;2.40;91.10;;;;;;5049953;28;20214;-75
2022/01/07 05:24:02;;;;;;;1.33;1.23;;;2.40;90.90;;;;;;5053295;28;20179;-77
2022/01/07 05:26:29;;;;;;;0.80;0.80;;;2.50;90.90;;;;;;5053377;28;20186;-75
2022/01/07 05:28:55;;;;;;;2.70;1.63;;;2.50;90.80;;;;;;5050270;28;20183;-75
2022/01/07 05:31:24;;;;;;;1.03;1.03;;;2.50;90.70;;;;;;5048876;28;20183;-75
2022/01/07 05:33:51;;;;;;;1.50;1.00;;;2.50;90.80;;;;;;5052316;28;20300;-76
2022/01/07 05:36:19;;;;;;;1.17;1.03;;;2.50;90.90;;;;;;5049059;28;20297;-76
2022/01/07 05:38:45;;;;;;;1.20;1.20;;;2.50;90.90;;;;;;5048240;28;20208;-76
2022/01/07 05:41:13;;;;;;;0.90;0.90;;;2.50;90.80;;;;;;5050842;28;20190;-75
2022/01/07 05:43:39;;;;;;;1.23;1.23;;;2.50;90.60;;;;;;5053320;28;20180;-76
2022/01/07 05:46:05;;;;;;;1.13;1.13;;;2.60;90.60;;;;;;5051907;28;20565;-76
2022/01/07 05:48:32;;;;;;;2.63;0.93;;;2.50;90.80;;;;;;5057205;28;20183;-76
2022/01/07 05:50:58;;;;;;;0.73;0.73;;;2.50;90.60;;;;;;5047835;28;20187;-76
2022/01/07 05:53:24;;;;;;;1.57;1.40;;;2.50;90.60;;;;;;5054396;28;20186;-76
2022/01/07 05:55:49;;;;;;;2.10;1.60;;;2.40;90.80;;;;;;5054592;28;20222;-75
2022/01/07 05:58:15;;;;;;;2.40;1.10;;;2.40;91.10;;;;;;5053561;28;20203;-74
2022/01/07 06:00:41;;;;;;;0.70;0.70;;;2.30;91.40;;;;;;5049110;28;20188;-74
2022/01/07 06:03:06;;;;;;;0.80;0.80;;;2.20;91.60;;;;;;5054671;28;20290;-73
2022/01/07 06:05:32;;;;;;;0.93;0.93;;;2.20;91.80;;;;;;5054192;28;20285;-73
2022/01/07 06:07:58;;;;;;;6.93;1.03;;;2.20;91.90;;;;;;5050642;28;20187;-73
2022/01/07 06:10:24;;;;;;;0.87;0.87;;;2.20;92.00;;;;;;5046428;28;20188;-74
2022/01/07 06:12:50;;;;;;;1.07;1.00;;;2.20;92.00;;;;;;5052608;28;20198;-73
2022/01/07 06:15:15;;;;;;;0.90;0.90;;;2.20;92.10;;;;;;5048565;28;20705;-73
2022/01/07 06:17:41;;;;;;;1.37;1.37;;;2.20;92.10;;;;;;5054106;28;20297;-73
2022/01/07 06:20:08;;;;;;;1.30;1.30;;;2.20;92.10;;;;;;5052815;28;20578;-72
2022/01/07 06:22:37;;;;;;;0.93;0.93;;;2.20;92.00;;;;;;5049326;28;20718;-73
2022/01/07 06:25:04;;;;;;;3.17;1.33;;;2.30;91.90;;;;;;5049096;28;20670;-72
2022/01/07 06:27:30;;;;;;;1.10;1.10;;;2.40;91.50;;;;;;5045600;28;20210;-76
2022/01/07 06:29:57;;;;;;;1.10;1.10;;;2.40;91.30;;;;;;5057196;28;20191;-76
2022/01/07 06:32:23;;;;;;;1.20;1.10;;;2.40;91.10;;;;;;5048770;28;20187;-75
2022/01/07 06:34:49;;;;;;;2.07;1.37;;;2.40;91.10;;;;;;5051514;28;20179;-73
2022/01/07 06:37:15;;;;;;;0.60;0.60;;;2.30;91.30;;;;;;5046448;28;20185;-72
2022/01/07 06:39:41;;;;;;;1.53;1.47;;;2.40;91.30;;;;;;5048102;28;20183;-74
2022/01/07 06:42:07;;;;;;;2.33;2.10;;;2.40;91.30;;;;;;5050720;28;20207;-74
2022/01/07 06:44:33;;;;;;;1.47;1.37;;;2.40;91.40;;;;;;5047476;28;20179;-74
2022/01/07 06:46:59;;;;;;;1.43;1.40;;;2.40;91.30;;;;;;5051543;28;20194;-74
2022/01/07 06:49:25;;;;;;;2.33;2.23;;;2.40;91.40;;;;;;5050263;28;20586;-76
2022/01/07 06:51:51;;;;;;;2.27;2.10;;;2.40;91.50;;;;;;5052733;28;20202;-74
2022/01/07 06:54:17;;;;;;;2.00;1.60;;;2.40;91.50;;;;;;5052667;28;20185;-73
2022/01/07 06:56:44;;;;;;;2.20;2.00;;;2.40;91.50;;;;;;5047509;28;20236;-74
2022/01/07 06:59:12;;;;;;;1.43;1.30;;;2.40;91.50;;;;;;5046684;28;20190;-75
2022/01/07 07:01:39;;;;;;;1.93;1.73;;;2.50;91.40;;;;;;5048288;28;20719;-72
2022/01/07 07:04:04;;;;;;;1.93;1.83;;;2.60;91.10;;;;;;5047500;28;20191;-73
2022/01/07 07:06:30;;;;;;;3.50;2.27;;;2.70;91.00;;;;;;5050863;28;20175;-74
2022/01/07 07:08:56;;;;;;;4.40;1.70;;;2.80;90.70;;;;;;5054763;28;20738;-74
2022/01/07 07:11:22;;;;;;;7.57;2.30;;;2.90;90.60;;;;;;5051572;28;20751;-73
2022/01/07 07:13:47;;;;;;;2.27;1.70;;;3.10;90.10;;;;;;5048241;28;20186;-72
2022/01/07 07:16:15;;;;;;;2.57;2.37;;;3.30;89.20;;;;;;5050912;28;20183;-73
2022/01/07 07:18:40;;;;;;;2.00;1.90;;;3.40;88.70;;;;;;5047652;28;20179;-74
2022/01/07 07:21:06;;;;;;;2.43;2.23;;;3.50;88.30;;;;;;5053713;28;20189;-73
2022/01/07 07:23:32;;;;;;;7.83;2.17;;;3.60;88.00;;;;;;5051103;28;20215;-74
2022/01/07 07:25:58;;;;;;;2.77;1.83;;;3.70;87.70;;;;;;5053537;28;20179;-73
2022/01/07 07:28:23;;;;;;;3.03;1.17;;;3.80;87.30;;;;;;5044289;28;20224;-73
2022/01/07 07:30:51;;;;;;;1.80;1.67;;;3.80;87.10;;;;;;5050864;28;20306;-73
2022/01/07 07:38:34;;;;;;;2.03;1.93;;;4.20;85.60;;;;;;5047478;28;20278;-73
2022/01/07 07:41:00;;;;;;;2.03;1.77;;;4.30;85.40;;;;;;5052532;28;20180;-74
2022/01/07 07:43:26;;;;;;;1.97;1.87;;;4.30;85.20;;;;;;5046226;28;20222;-74
2022/01/07 07:45:51;;;;;;;3.83;2.57;;;4.40;85.10;;;;;;5049041;28;20726;-73
2022/01/07 07:48:17;;;;;;;3.10;2.90;;;4.50;84.90;;;;;;5052469;28;20183;-73
2022/01/07 07:50:43;;;;;;;2.23;2.03;;;4.60;84.40;;;;;;5046889;28;20207;-74
2022/01/07 07:53:08;;;;;;;2.23;2.03;;;4.60;83.90;;;;;;5049473;28;20576;-73
2022/01/07 07:55:34;;;;;;;2.97;2.57;;;4.50;83.60;;;;;;5052061;28;20179;-73
2022/01/07 07:58:00;;;;;;;3.40;2.83;;;4.40;84.00;;;;;;5051818;28;20207;-74
2022/01/07 08:00:26;;;;;;;2.20;2.00;;;4.40;84.00;;;;;;5052806;28;20645;-74
2022/01/07 08:02:51;;;;;;;3.67;2.77;;;4.30;84.10;;;;;;5050636;28;20230;-73
2022/01/07 08:05:17;;;;;;;2.97;2.70;;;4.30;84.40;;;;;;5047719;28;20242;-73
2022/01/07 08:07:43;;;;;;;3.03;2.83;;;4.30;84.50;;;;;;5038793;28;20183;-74
2022/01/07 08:10:09;;;;;;;3.20;2.93;;;4.30;84.70;;;;;;5047463;28;20171;-73
2022/01/07 08:15:58;;;;;;;4.40;2.80;;;4.40;84.80;;;;;;5036277;28;20618;-74
2022/01/07 08:18:25;;;;;;;3.50;3.30;;;4.50;84.40;;;;;;5035991;28;20234;-73
2022/01/07 08:20:51;;;;;;;3.70;2.97;;;4.60;84.00;;;;;;5037240;28;20700;-73
2022/01/07 08:23:18;;;;;;;4.20;3.80;;;4.70;84.10;;;;;;5032296;28;20633;-74
2022/01/07 08:25:45;;;;;;;3.20;2.90;;;4.70;83.70;;;;;;5034605;28;20183;-73
2022/01/07 08:28:12;;;;;;;3.70;3.43;;;4.60;83.70;;;;;;5028102;28;20311;-74
2022/01/07 08:30:59;;;;;;;3.37;2.93;;;4.60;83.90;;;;;;5030795;28;20191;-78
2022/01/07 08:36:10;;;;;;;2.70;2.50;;;4.60;84.10;;;;;;5028940;28;20190;-72
2022/01/07 08:38:36;;;;;;;4.70;2.37;;;4.60;84.30;;;;;;5031566;28;20187;-74
2022/01/07 08:41:02;;;;;;;3.13;2.83;;;4.70;84.10;;;;;;5033470;28;20680;-72
2022/01/07 08:43:28;;;;;;;4.00;3.57;;;4.80;84.10;;;;;;5028464;28;20240;-75
2022/01/07 08:45:54;;;;;;;5.53;3.33;;;4.90;83.80;;;;;;5028970;28;20730;-76
2022/01/07 08:48:19;;;;;;;6.27;3.80;;;5.10;83.70;;;;;;5032092;28;20180;-75
2022/01/07 08:50:45;;;;;;;4.57;3.13;;;5.20;83.30;;;;;;5042760;28;20353;-74
2022/01/07 08:53:11;;;;;;;3.93;3.30;;;5.50;83.10;;;;;;5044657;28;20175;-75
2022/01/07 08:55:37;;;;;;;5.10;3.23;;;5.70;82.00;;;;;;5050041;28;20175;-75
2022/01/07 08:58:03;;;;;;;5.70;2.67;;;5.80;81.10;;;;;;5045679;28;20207;-74
2022/01/07 09:00:30;;;;;;;3.27;3.07;;;5.90;81.00;;;;;;5039379;28;20854;-74
2022/01/07 09:02:56;;;;;;;2.67;2.43;;;6.00;80.70;;;;;;5044642;28;20226;-74
2022/01/07 09:05:22;;;;;;;3.00;2.80;;;6.10;80.20;;;;;;5050658;28;20184;-75
2022/01/07 09:07:47;;;;;;;3.80;3.50;;;6.20;79.90;;;;;;5047931;28;20184;-75
2022/01/07 09:10:13;;;;;;;5.90;4.23;;;6.20;79.80;;;;;;5048752;28;20175;-75
2022/01/07 09:12:39;;;;;;;5.03;4.20;;;6.20;79.70;;;;;;5049880;28;20180;-75
2022/01/07 09:15:05;;;;;;;4.03;3.63;;;6.20;79.80;;;;;;5045411;28;21069;-78
2022/01/07 09:17:32;;;;;;;4.47;4.17;;;6.20;79.90;;;;;;5053901;28;20245;-76
2022/01/07 09:19:59;;;;;;;6.77;3.23;;;6.10;79.60;;;;;;5053123;28;20187;-78
2022/01/07 09:22:25;;;;;;;3.97;3.63;;;5.90;79.50;;;;;;5054628;28;20207;-78
2022/01/07 09:24:51;;;;;;;7.37;3.93;;;5.70;80.10;;;;;;5053759;28;20209;-76
2022/01/07 09:27:17;;;;;;;8.17;4.53;;;5.60;80.60;;;;;;5048667;28;20183;-75
2022/01/07 09:29:42;;;;;;;8.00;4.40;;;5.50;81.00;;;;;;5051085;28;20859;-73
2022/01/07 09:32:08;;;;;;;5.97;3.70;;;5.30;81.40;;;;;;5046827;28;20214;-76
2022/01/07 09:34:35;;;;;;;7.03;4.17;;;5.20;81.80;;;;;;5053574;28;20579;-77
2022/01/07 09:37:05;;;;;;;3.57;3.27;;;5.20;82.00;;;;;;5048519;28;20248;-75
2022/01/07 09:39:32;;;;;;;3.40;3.00;;;5.10;82.20;;;;;;5051872;28;20230;-74
2022/01/07 09:42:01;;;;;;;5.97;3.63;;;5.20;82.20;;;;;;5049357;28;20690;-77
2022/01/07 09:44:28;;;;;;;5.00;3.50;;;5.20;82.40;;;;;;5045505;28;20276;-76
2022/01/07 09:46:54;;;;;;;4.30;3.27;;;5.20;82.50;;;;;;5052877;28;20187;-74
2022/01/07 09:49:20;;;;;;;3.70;3.47;;;5.20;82.40;;;;;;5056854;28;20171;-75
2022/01/07 09:51:45;;;;;;;4.17;3.77;;;5.20;82.40;;;;;;5045015;28;20191;-74
2022/01/07 09:54:11;;;;;;;4.07;3.63;;;5.30;82.30;;;;;;5046507;28;20263;-76
2022/01/07 09:56:38;;;;;;;4.03;3.67;;;5.30;82.10;;;;;;5049157;28;20190;-77
2022/01/07 09:59:05;;;;;;;5.43;3.60;;;5.30;82.10;;;;;;5046231;28;20192;-76
2022/01/07 10:01:51;;;;;;;3.20;2.90;;;5.30;82.10;;;;;;5051040;28;20207;-74
2022/01/07 10:04:38;;;;;;;5.47;4.07;;;5.40;82.20;;;;;;5054130;28;20236;-73
2022/01/07 10:07:17;;;;;;;3.77;3.43;;;5.50;81.90;;;;;;5054150;28;20210;-75
2022/01/07 10:09:56;;;;;;;3.87;3.40;;;5.50;81.70;;;;;;5048030;28;20186;-75
2022/01/07 10:12:22;;;;;;;6.57;4.57;;;5.60;81.50;;;;;;5052454;28;20626;-77
2022/01/07 10:15:11;;;;;;;4.13;3.83;;;5.60;81.40;;;;;;5052117;28;20267;-75
2022/01/07 10:17:37;;;;;;;4.47;4.07;;;5.60;81.20;;;;;;5052711;28;20178;-75
2022/01/07 10:20:03;;;;;;;7.77;3.87;;;5.60;81.20;;;;;;5053274;28;20242;-74
2022/01/07 10:22:29;;;;;;;3.50;3.23;;;5.70;81.10;;;;;;5051490;28;20215;-77
2022/01/07 10:25:03;;;;;;;3.70;3.23;;;5.80;80.60;;;;;;5049442;28;20806;-77
2022/01/07 10:27:37;;;;;;;3.77;2.90;;;5.90;80.60;;;;;;5058344;28;20178;-77
2022/01/07 10:30:11;;;;;;;2.97;2.37;;;6.00;80.30;;;;;;5055408;28;20260;-77
2022/01/07 10:32:38;;;;;;;5.20;3.30;;;6.10;80.10;;;;;;5050575;28;20288;-77
2022/01/07 10:35:12;;;;;;;4.70;3.10;;;6.20;80.00;;;;;;5053489;28;20176;-79
2022/01/07 10:37:56;;;;;;;3.70;3.10;;;6.30;79.50;;;;;;5055028;28;20197;-77
2022/01/07 10:40:23;;;;;;;3.53;2.93;;;6.40;79.40;;;;;;5053723;28;20576;-77
2022/01/07 10:42:50;;;;;;;3.10;2.90;;;6.50;79.30;;;;;;5054403;28;20223;-77
2022/01/07 10:45:17;;;;;;;3.67;3.30;;;6.60;79.20;;;;;;5052464;28;20176;-79
2022/01/07 10:47:48;;;;;;;3.37;3.17;;;6.70;78.40;;;;;;5046706;28;20743;-77
2022/01/07 10:50:17;;;;;;;10.23;3.70;;;6.70;78.20;;;;;;5046115;28;20539;-77
2022/01/07 10:52:44;;;;;;;3.90;3.10;;;6.80;77.60;;;;;;5049497;28;20186;-80
2022/01/07 10:55:19;;;;;;;6.60;4.00;;;6.80;77.80;;;;;;5049841;28;20176;-79
2022/01/07 10:57:47;;;;;;;2.73;2.50;;;6.90;77.60;;;;;;5047771;28;20199;-80
2022/01/07 11:00:18;;;;;;;4.70;3.23;;;7.00;77.90;;;;;;5058502;28;20187;-79
2022/01/07 11:02:45;;;;;;;6.67;3.50;;;7.00;77.30;;;;;;5050069;28;20217;-81
2022/01/07 11:05:12;;;;;;;4.60;3.40;;;7.10;77.20;;;;;;5056538;28;20194;-75
2022/01/07 11:07:38;;;;;;;3.27;3.00;;;7.10;77.30;;;;;;5044654;28;20196;-75
2022/01/07 11:10:07;;;;;;;5.20;3.83;;;7.20;77.00;;;;;;5053923;28;20176;-75
2022/01/07 11:12:35;;;;;;;3.50;3.23;;;7.20;76.60;;;;;;5059616;28;20175;-75
2022/01/07 11:15:02;;;;;;;3.87;2.90;;;7.20;76.50;;;;;;5051882;28;20721;-75
2022/01/07 11:17:29;;;;;;;4.43;3.03;;;7.20;76.30;;;;;;5057682;28;20171;-76
2022/01/07 11:19:59;;;;;;;9.27;3.13;;;7.10;76.50;;;;;;5052554;28;20203;-76
2022/01/07 11:22:25;;;;;;;5.17;3.17;;;7.10;76.40;;;;;;5043965;28;20589;-75
2022/01/07 11:24:59;;;;;;;5.33;3.60;;;7.10;76.00;;;;;;5053293;28;20190;-75
2022/01/07 11:27:26;;;;;;;2.50;2.30;;;7.10;75.80;;;;;;5050096;28;20191;-76
2022/01/07 11:30:08;;;;;;;4.13;3.73;;;7.10;75.60;;;;;;5051805;28;20737;-75
2022/01/07 11:32:42;;;;;;;5.77;3.33;;;7.10;75.60;;;;;;5056712;28;20191;-75
2022/01/07 11:35:17;;;;;;;4.90;3.40;;;7.00;75.60;;;;;;5046272;28;20665;-75
2022/01/07 11:37:53;;;;;;;4.23;3.40;;;7.10;75.90;;;;;;5049579;28;20178;-75
2022/01/07 11:40:33;;;;;;;4.60;3.00;;;7.10;75.90;;;;;;5054658;28;20202;-76
2022/01/07 11:43:06;;;;;;;3.60;3.30;;;7.20;75.40;;;;;;5053321;28;20203;-75
2022/01/07 11:45:56;;;;;;;3.50;2.97;;;7.20;75.00;;;;;;5051577;28;20183;-75
2022/01/07 11:48:26;;;;;;;5.20;3.20;;;7.20;74.40;;;;;;5049202;28;20183;-74
2022/01/07 11:51:00;;;;;;;3.57;3.27;;;7.20;74.50;;;;;;5045603;28;20190;-75
2022/01/07 11:53:49;;;;;;;2.40;2.17;;;7.10;74.80;;;;;;5048131;28;20867;-75
2022/01/07 11:56:16;;;;;;;2.83;2.57;;;7.10;74.80;;;;;;5049558;28;20213;-75
2022/01/07 11:58:51;;;;;;;4.07;3.57;;;7.00;75.00;;;;;;5054859;28;20193;-74
2022/01/07 12:01:28;;;;;;;4.27;3.50;;;7.00;75.10;;;;;;5052171;28;20170;-75
2022/01/07 12:04:03;;;;;;;3.63;2.87;;;7.00;75.50;;;;;;5052062;28;20196;-74
2022/01/07 12:06:30;;;;;;;4.07;3.13;;;7.00;75.10;;;;;;5047823;28;20590;-76
2022/01/07 12:09:16;;;;;;;2.67;2.53;;;7.00;75.60;;;;;;5054870;28;20673;-76
2022/01/07 12:11:58;;;;;;;4.40;3.10;;;7.10;75.90;;;;;;5050829;28;20558;-76
2022/01/07 12:14:52;;;;;;;3.53;2.47;;;7.10;75.20;;;;;;5044183;28;20183;-75
2022/01/07 12:17:20;;;;;;;2.33;2.23;;;7.20;74.10;;;;;;5048664;28;20187;-75
2022/01/07 12:19:49;;;;;;;3.67;2.57;;;7.20;74.60;;;;;;5051586;28;20708;-76
2022/01/07 12:22:16;;;;;;;3.87;1.63;;;7.30;74.30;;;;;;5051936;28;20214;-76
2022/01/07 12:24:43;;;;;;;2.97;2.17;;;7.40;73.10;;;;;;5052590;28;20681;-75
2022/01/07 12:27:13;;;;;;;3.50;2.17;;;7.40;72.50;;;;;;5054024;28;20186;-75
2022/01/07 12:29:43;;;;;;;2.60;2.23;;;7.30;72.60;;;;;;5053483;28;20260;-75
2022/01/07 12:32:11;;;;;;;3.23;2.90;;;7.30;72.70;;;;;;5050914;28;20211;-76
2022/01/07 12:34:43;;;;;;;3.57;2.50;;;7.20;72.30;;;;;;5053643;28;20261;-75
2022/01/07 12:37:14;;;;;;;3.90;2.23;;;7.20;73.40;;;;;;5042635;28;20176;-76
2022/01/07 12:39:54;;;;;;;2.27;2.07;;;7.30;73.40;;;;;;5043575;28;20179;-75
2022/01/07 12:42:21;;;;;;;2.23;2.13;;;7.30;73.70;;;;;;5053208;28;20750;-76
2022/01/07 12:44:52;;;;;;;2.23;2.07;;;7.40;73.90;;;;;;5049912;28;20211;-75
2022/01/07 12:47:20;;;;;;;5.97;2.10;;;7.50;73.20;;;;;;5057777;28;20182;-76
2022/01/07 12:49:49;;;;;;;2.60;2.50;;;7.50;73.20;;;;;;5047820;28;20175;-76
2022/01/07 12:52:41;;;;;;;3.43;3.13;;;7.60;72.30;;;;;;5056371;28;20601;-75
2022/01/07 12:55:15;;;;;;;3.23;2.97;;;7.60;72.90;;;;;;5052469;28;20241;-75
2022/01/07 12:58:02;;;;;;;3.57;2.50;;;7.70;73.20;;;;;;5046389;28;20209;-76
2022/01/07 13:00:33;;;;;;;2.90;2.63;;;7.80;72.60;;;;;;5053279;28;20630;-76
2022/01/07 13:03:03;;;;;;;3.03;2.73;;;7.80;72.40;;;;;;5048317;28;20951;-75
2022/01/07 13:05:37;;;;;;;3.77;2.43;;;7.80;71.80;;;;;;5058190;28;20293;-76
2022/01/07 13:08:17;;;;;;;3.80;2.87;;;7.80;71.80;;;;;;5055884;28;20269;-76
2022/01/07 13:10:46;;;;;;;3.17;2.43;;;7.80;72.00;;;;;;5053951;28;20175;-76
2022/01/07 13:13:19;;;;;;;5.73;3.47;;;7.80;72.10;;;;;;5050634;28;20615;-76